Time;durP1;ratioP1;P1;durP2;ratioP2;P2;SDS_P1;SDS_P2;PMS_P1;PMS_P2;Temp;Humidity;BMP_temperature;BMP_pressure;BME280_temperature;BME280_humidity;BME280_pressure;Samples;Min_cycle;Max_cycle;Signal;HPM_P1;HPM_P2
2021/06/26 00:00:51;;;;;;;13.57;8.10;;;25.90;78.40;;;;;;4976146;28;20026;-68
2021/06/26 00:03:24;;;;;;;12.90;8.02;;;25.90;78.70;;;;;;4994189;28;20382;-68
2021/06/26 00:05:50;;;;;;;13.60;7.97;;;25.90;78.90;;;;;;4993563;28;20041;-67
2021/06/26 00:08:17;;;;;;;15.65;8.52;;;25.80;79.20;;;;;;4972158;28;20042;-68
2021/06/26 00:10:44;;;;;;;13.77;7.72;;;25.80;79.10;;;;;;4970948;28;20066;-67
2021/06/26 00:13:11;;;;;;;13.77;8.48;;;25.70;79.50;;;;;;4976243;28;20058;-68
2021/06/26 00:15:37;;;;;;;13.95;8.02;;;25.70;79.70;;;;;;4970874;28;20026;-67
2021/06/26 00:18:03;;;;;;;12.60;8.40;;;25.60;80.00;;;;;;4974903;28;20484;-68
2021/06/26 00:20:29;;;;;;;13.95;7.95;;;25.70;80.60;;;;;;4987355;28;20421;-68
2021/06/26 00:22:55;;;;;;;15.05;8.70;;;25.70;80.50;;;;;;4974017;28;20062;-67
2021/06/26 00:25:24;;;;;;;14.52;8.32;;;25.70;81.00;;;;;;4972579;28;20054;-67
2021/06/26 00:27:51;;;;;;;14.18;8.57;;;25.70;80.80;;;;;;4974083;28;20061;-67
2021/06/26 00:30:17;;;;;;;11.30;8.50;;;25.60;80.90;;;;;;4993465;28;20057;-67
2021/06/26 00:32:44;;;;;;;18.70;8.60;;;25.50;81.30;;;;;;4970868;28;20045;-67
2021/06/26 00:35:11;;;;;;;14.05;8.82;;;25.40;81.70;;;;;;4970859;28;20081;-70
2021/06/26 00:37:37;;;;;;;13.50;8.30;;;25.30;82.00;;;;;;4983272;28;20049;-67
2021/06/26 00:40:04;;;;;;;14.32;8.50;;;25.30;82.40;;;;;;4987587;28;20496;-69
2021/06/26 00:42:35;;;;;;;13.95;8.52;;;25.30;82.80;;;;;;4989163;28;20431;-67
2021/06/26 00:45:01;;;;;;;16.45;7.55;;;25.30;82.90;;;;;;4976630;28;20026;-68
2021/06/26 00:47:27;;;;;;;16.35;9.02;;;25.30;82.50;;;;;;4995965;28;20069;-67
2021/06/26 00:49:53;;;;;;;10.65;7.75;;;25.30;82.80;;;;;;4991388;28;20069;-69
2021/06/26 00:52:18;;;;;;;12.57;8.35;;;25.30;82.80;;;;;;4974482;28;20472;-68
2021/06/26 00:54:45;;;;;;;14.80;8.68;;;25.30;83.10;;;;;;4989256;28;20027;-68
2021/06/26 00:57:12;;;;;;;17.25;9.10;;;25.30;83.50;;;;;;4993677;28;20030;-68
2021/06/26 00:59:38;;;;;;;12.40;8.65;;;25.40;83.70;;;;;;4979915;28;20436;-68
2021/06/26 01:02:06;;;;;;;13.88;8.00;;;25.40;83.90;;;;;;4978928;28;20030;-69
2021/06/26 01:04:32;;;;;;;12.00;8.63;;;25.40;83.80;;;;;;4979705;28;20033;-67
2021/06/26 01:06:58;;;;;;;23.00;9.13;;;25.40;83.60;;;;;;4974433;28;20469;-69
2021/06/26 01:09:25;;;;;;;14.05;8.30;;;25.40;83.60;;;;;;4996796;28;20041;-68
2021/06/26 01:11:57;;;;;;;14.27;9.02;;;25.40;83.60;;;;;;4996917;28;20117;-70
2021/06/26 01:14:30;;;;;;;11.18;7.88;;;25.40;83.70;;;;;;4979449;28;20054;-68
2021/06/26 01:16:56;;;;;;;13.52;8.60;;;25.40;83.90;;;;;;4979698;28;20031;-65
2021/06/26 01:19:22;;;;;;;12.68;8.60;;;25.40;83.90;;;;;;4979286;28;20041;-68
2021/06/26 01:21:53;;;;;;;13.00;8.70;;;25.30;83.90;;;;;;4996662;28;20042;-68
2021/06/26 01:24:19;;;;;;;16.80;9.05;;;25.30;84.10;;;;;;4972208;28;20085;-71
2021/06/26 01:26:45;;;;;;;13.60;8.68;;;25.30;84.20;;;;;;4994630;28;20116;-69
2021/06/26 01:29:11;;;;;;;12.30;8.82;;;25.30;84.30;;;;;;5000079;28;20101;-69
2021/06/26 01:31:38;;;;;;;14.75;8.75;;;25.30;84.20;;;;;;5016372;28;20042;-66
2021/06/26 01:34:04;;;;;;;15.23;9.18;;;25.20;83.80;;;;;;4989589;28;20026;-66
2021/06/26 01:36:29;;;;;;;15.38;9.45;;;25.20;84.10;;;;;;5005993;28;20034;-70
2021/06/26 01:38:57;;;;;;;15.23;9.05;;;25.20;84.30;;;;;;4997804;28;20030;-67
2021/06/26 01:41:24;;;;;;;12.02;8.45;;;25.10;84.40;;;;;;4984728;28;20058;-70
2021/06/26 01:43:50;;;;;;;12.57;8.20;;;25.20;83.80;;;;;;5007217;28;20037;-68
2021/06/26 01:46:16;;;;;;;14.48;8.95;;;25.10;83.40;;;;;;4975279;28;20389;-72
2021/06/26 01:48:42;;;;;;;15.18;8.57;;;25.00;83.80;;;;;;4995204;28;20026;-69
2021/06/26 01:51:07;;;;;;;13.60;8.10;;;25.00;84.10;;;;;;5002350;28;20026;-68
2021/06/26 01:53:34;;;;;;;17.17;8.40;;;25.00;84.30;;;;;;5014845;28;20141;-68
2021/06/26 01:56:00;;;;;;;12.65;8.48;;;25.00;84.80;;;;;;4998462;28;20030;-68
2021/06/26 01:58:25;;;;;;;12.25;8.60;;;25.00;85.40;;;;;;4996481;28;20026;-69
2021/06/26 02:00:51;;;;;;;13.80;8.48;;;25.00;85.70;;;;;;5006716;28;20370;-67
2021/06/26 02:03:17;;;;;;;17.75;8.70;;;25.10;86.00;;;;;;4980167;28;20058;-67
2021/06/26 02:05:43;;;;;;;18.85;9.30;;;25.10;86.10;;;;;;4984762;28;20057;-68
2021/06/26 02:08:08;;;;;;;13.15;8.85;;;25.20;86.20;;;;;;5007712;28;20409;-68
2021/06/26 02:10:34;;;;;;;13.07;8.18;;;25.20;85.90;;;;;;4996546;28;20031;-68
2021/06/26 02:13:01;;;;;;;13.27;8.65;;;25.20;85.50;;;;;;4998002;28;20084;-68
2021/06/26 02:15:27;;;;;;;13.77;8.77;;;25.20;85.00;;;;;;5015278;28;20029;-65
2021/06/26 02:17:53;;;;;;;16.63;8.35;;;25.30;84.70;;;;;;5002233;28;20021;-66
2021/06/26 02:20:19;;;;;;;18.95;8.68;;;25.30;84.10;;;;;;5006486;28;20065;-67
2021/06/26 02:22:46;;;;;;;12.90;8.32;;;25.30;83.70;;;;;;4980518;28;20034;-64
2021/06/26 02:25:13;;;;;;;16.10;7.90;;;25.40;83.40;;;;;;4995124;28;20032;-66
2021/06/26 02:27:39;;;;;;;15.70;8.07;;;25.40;83.20;;;;;;4977900;28;20118;-66
2021/06/26 02:30:07;;;;;;;11.77;8.02;;;25.30;83.00;;;;;;4977155;28;20378;-64
2021/06/26 02:32:32;;;;;;;10.90;7.97;;;25.40;82.80;;;;;;4969987;28;20085;-67
2021/06/26 02:34:58;;;;;;;13.55;8.10;;;25.40;82.70;;;;;;4980908;28;20038;-65
2021/06/26 02:37:24;;;;;;;13.35;8.43;;;25.40;82.40;;;;;;5011823;28;20021;-65
2021/06/26 02:39:49;;;;;;;16.83;8.13;;;25.50;82.10;;;;;;5004739;28;20038;-67
2021/06/26 02:42:15;;;;;;;11.25;8.23;;;25.50;81.90;;;;;;4976210;28;20034;-67
2021/06/26 02:44:41;;;;;;;12.13;8.75;;;25.60;81.80;;;;;;4976637;28;20026;-66
2021/06/26 02:47:07;;;;;;;12.23;8.10;;;25.60;81.70;;;;;;5000506;28;20030;-66
2021/06/26 02:49:32;;;;;;;12.13;7.90;;;25.60;81.60;;;;;;5000863;28;20373;-70
2021/06/26 02:51:58;;;;;;;12.68;7.97;;;25.70;81.50;;;;;;5008062;28;20029;-66
2021/06/26 02:54:24;;;;;;;15.23;8.73;;;25.80;81.50;;;;;;4997012;28;20025;-66
2021/06/26 02:56:49;;;;;;;13.55;8.38;;;25.80;81.30;;;;;;4995529;28;20112;-66
2021/06/26 02:59:15;;;;;;;14.35;7.70;;;25.90;81.10;;;;;;5011622;28;20034;-65
2021/06/26 03:01:41;;;;;;;12.23;7.45;;;26.00;80.90;;;;;;4982581;28;20077;-64
2021/06/26 03:04:06;;;;;;;13.73;7.32;;;26.00;80.50;;;;;;4982766;28;20450;-68
2021/06/26 03:06:32;;;;;;;11.77;7.43;;;26.20;80.10;;;;;;4976850;28;20027;-64
2021/06/26 03:08:58;;;;;;;12.27;7.88;;;26.20;79.30;;;;;;5001468;28;20033;-65
2021/06/26 03:11:23;;;;;;;13.90;7.80;;;26.40;79.00;;;;;;4988098;28;20027;-70
2021/06/26 03:13:49;;;;;;;13.15;7.38;;;26.60;78.50;;;;;;4995960;28;20074;-68
2021/06/26 03:16:15;;;;;;;11.23;7.50;;;26.80;77.70;;;;;;4992371;28;20031;-68
2021/06/26 03:18:44;;;;;;;12.10;7.32;;;27.00;76.80;;;;;;4978603;28;20110;-66
2021/06/26 03:21:11;;;;;;;12.13;6.75;;;27.20;75.60;;;;;;4988128;28;20030;-66
2021/06/26 03:23:38;;;;;;;12.23;7.10;;;27.50;74.70;;;;;;4979571;28;20022;-67
2021/06/26 03:26:05;;;;;;;11.15;7.18;;;27.70;73.90;;;;;;4979334;28;20472;-66
2021/06/26 03:28:32;;;;;;;10.32;7.50;;;28.00;73.10;;;;;;4978528;28;20082;-67
2021/06/26 03:30:58;;;;;;;14.07;7.40;;;28.30;72.50;;;;;;4979120;28;20038;-66
2021/06/26 03:33:24;;;;;;;14.30;6.57;;;28.50;71.80;;;;;;4982048;28;20030;-65
2021/06/26 03:35:49;;;;;;;12.73;6.72;;;28.80;71.00;;;;;;4993115;28;20033;-65
2021/06/26 03:38:15;;;;;;;11.25;6.43;;;29.00;70.10;;;;;;4992497;28;20412;-66
2021/06/26 03:40:41;;;;;;;12.15;6.75;;;29.20;69.50;;;;;;4986567;28;20037;-63
2021/06/26 03:43:06;;;;;;;10.63;6.28;;;29.40;68.20;;;;;;5009373;28;20025;-66
2021/06/26 03:45:32;;;;;;;12.63;7.15;;;29.60;67.50;;;;;;5001087;28;20097;-66
2021/06/26 03:47:58;;;;;;;12.27;6.80;;;29.90;67.00;;;;;;5006441;28;20033;-66
2021/06/26 03:50:23;;;;;;;8.52;7.05;;;30.00;66.30;;;;;;4978526;28;20400;-67
2021/06/26 03:52:49;;;;;;;12.23;7.03;;;30.20;65.50;;;;;;5004953;28;20049;-67
2021/06/26 03:55:15;;;;;;;14.30;7.35;;;30.50;65.10;;;;;;5008731;28;20384;-68
2021/06/26 03:57:41;;;;;;;14.73;6.93;;;30.60;64.60;;;;;;5013835;28;20053;-68
2021/06/26 04:00:07;;;;;;;12.23;6.60;;;30.70;64.20;;;;;;4994969;28;20030;-65
2021/06/26 04:02:33;;;;;;;9.43;6.60;;;30.90;63.80;;;;;;4998277;28;20092;-67
2021/06/26 04:04:59;;;;;;;10.73;6.57;;;31.20;63.40;;;;;;4980520;28;20030;-68
2021/06/26 04:07:24;;;;;;;13.73;6.63;;;31.40;62.80;;;;;;4997925;28;20427;-66
2021/06/26 04:09:50;;;;;;;9.10;6.78;;;31.50;62.20;;;;;;5013335;28;20464;-68
2021/06/26 04:12:16;;;;;;;13.48;7.10;;;31.60;61.90;;;;;;5012994;28;20030;-67
2021/06/26 04:14:42;;;;;;;9.32;6.68;;;31.80;61.90;;;;;;4992132;28;20046;-65
2021/06/26 04:17:07;;;;;;;9.75;6.65;;;32.10;61.50;;;;;;5004557;28;20361;-67
2021/06/26 04:19:33;;;;;;;13.75;7.18;;;32.40;60.80;;;;;;4994779;28;20026;-66
2021/06/26 04:21:59;;;;;;;11.32;5.82;;;32.60;59.90;;;;;;5013143;28;20042;-67
2021/06/26 04:24:25;;;;;;;13.75;7.20;;;32.80;59.50;;;;;;4995298;28;20076;-71
2021/06/26 04:26:51;;;;;;;10.93;7.03;;;33.00;58.50;;;;;;4996394;28;20026;-68
2021/06/26 04:29:17;;;;;;;10.38;6.75;;;33.00;58.20;;;;;;4993178;28;20457;-67
2021/06/26 04:31:43;;;;;;;16.33;7.45;;;33.20;58.00;;;;;;4981237;28;20033;-66
2021/06/26 04:34:09;;;;;;;14.40;7.00;;;33.30;57.60;;;;;;4989562;28;20105;-69
2021/06/26 04:36:35;;;;;;;10.40;6.60;;;33.50;57.20;;;;;;4974239;28;20514;-67
2021/06/26 04:39:05;;;;;;;11.98;7.05;;;33.60;56.50;;;;;;4979199;28;20074;-71
2021/06/26 04:41:34;;;;;;;10.73;7.50;;;33.70;56.20;;;;;;4982019;28;20061;-74
2021/06/26 04:43:59;;;;;;;12.55;7.07;;;33.90;55.90;;;;;;4977618;28;20396;-71
2021/06/26 04:46:25;;;;;;;11.43;6.97;;;34.10;55.70;;;;;;4982100;28;20026;-74
2021/06/26 04:48:51;;;;;;;9.30;7.05;;;34.20;54.80;;;;;;4998504;28;20042;-74
2021/06/26 04:51:18;;;;;;;12.73;7.00;;;34.30;54.80;;;;;;4981214;28;20041;-72
2021/06/26 04:53:44;;;;;;;12.95;7.45;;;34.40;54.60;;;;;;4975299;28;20384;-68
2021/06/26 04:56:10;;;;;;;10.35;7.47;;;34.70;54.10;;;;;;4958713;28;20038;-67
2021/06/26 04:58:35;;;;;;;10.40;6.78;;;34.80;53.80;;;;;;4969390;28;20035;-67
2021/06/26 05:01:01;;;;;;;10.85;6.60;;;35.00;53.60;;;;;;4987185;28;20518;-69
2021/06/26 05:03:27;;;;;;;12.02;7.10;;;35.30;53.40;;;;;;4992963;28;20062;-68
2021/06/26 05:05:53;;;;;;;10.65;7.03;;;35.40;53.30;;;;;;4987081;28;20026;-69
2021/06/26 05:08:19;;;;;;;11.65;7.05;;;35.60;53.20;;;;;;4979106;28;20033;-68
2021/06/26 05:10:45;;;;;;;13.40;6.60;;;35.80;52.20;;;;;;4981121;28;20045;-66
2021/06/26 05:13:11;;;;;;;12.30;6.82;;;35.90;51.90;;;;;;4993932;28;20046;-69
2021/06/26 05:15:37;;;;;;;11.18;6.55;;;36.00;51.80;;;;;;4974110;28;20421;-68
2021/06/26 05:18:03;;;;;;;11.25;7.25;;;36.20;51.90;;;;;;4973775;28;20056;-69
2021/06/26 05:20:29;;;;;;;10.07;6.22;;;36.40;51.80;;;;;;4975303;28;20049;-69
2021/06/26 05:22:54;;;;;;;11.57;6.78;;;36.60;51.70;;;;;;4969915;28;20083;-69
2021/06/26 05:25:20;;;;;;;10.77;6.78;;;36.80;52.00;;;;;;4972042;28;20034;-66
2021/06/26 05:27:46;;;;;;;9.25;6.30;;;36.70;50.50;;;;;;4975193;28;20543;-70
2021/06/26 05:30:13;;;;;;;11.93;6.60;;;36.80;49.80;;;;;;4975663;28;20401;-70
2021/06/26 05:32:39;;;;;;;10.38;6.43;;;36.80;49.70;;;;;;4995111;28;20031;-67
2021/06/26 05:35:06;;;;;;;10.27;6.40;;;36.90;49.70;;;;;;4993741;28;20042;-71
2021/06/26 05:37:32;;;;;;;10.10;7.28;;;36.90;49.60;;;;;;4995254;28;20029;-70
2021/06/26 05:39:58;;;;;;;12.15;6.80;;;37.10;49.40;;;;;;4996979;28;20042;-68
2021/06/26 05:42:24;;;;;;;10.13;6.65;;;37.10;49.00;;;;;;4996620;28;20421;-70
2021/06/26 05:44:49;;;;;;;8.27;6.65;;;37.00;48.90;;;;;;4991023;28;20022;-73
2021/06/26 05:47:15;;;;;;;12.27;6.70;;;37.00;49.00;;;;;;4991062;28;20035;-70
2021/06/26 05:49:41;;;;;;;15.98;6.63;;;37.10;49.30;;;;;;4998323;28;20027;-69
2021/06/26 05:52:07;;;;;;;9.15;6.25;;;37.20;49.70;;;;;;5008659;28;20033;-69
2021/06/26 05:54:33;;;;;;;11.40;7.20;;;37.20;49.40;;;;;;5005130;28;20117;-67
2021/06/26 05:57:01;;;;;;;10.15;7.03;;;37.40;49.20;;;;;;5007870;28;20029;-72
2021/06/26 05:59:27;;;;;;;8.82;6.68;;;37.50;49.00;;;;;;4976976;28;20178;-67
2021/06/26 06:01:52;;;;;;;11.35;7.13;;;37.50;48.40;;;;;;4988562;28;20110;-70
2021/06/26 06:04:18;;;;;;;10.95;7.07;;;37.60;48.80;;;;;;4983041;28;20042;-70
2021/06/26 06:06:44;;;;;;;10.65;6.82;;;37.80;49.10;;;;;;4985755;28;20484;-71
2021/06/26 06:09:09;;;;;;;9.50;7.32;;;37.80;48.50;;;;;;4996662;28;20484;-68
2021/06/26 06:11:35;;;;;;;11.10;6.80;;;37.90;48.70;;;;;;4974948;28;20062;-74
2021/06/26 06:14:01;;;;;;;12.40;7.00;;;38.00;48.90;;;;;;4989028;28;20061;-75
2021/06/26 06:16:27;;;;;;;10.65;6.70;;;38.10;50.10;;;;;;5007610;28;20033;-71
2021/06/26 06:18:52;;;;;;;10.20;7.10;;;38.20;48.60;;;;;;4972587;28;20121;-74
2021/06/26 06:21:19;;;;;;;11.82;7.53;;;38.40;48.50;;;;;;4991107;28;20034;-71
2021/06/26 06:23:45;;;;;;;16.65;7.13;;;38.60;48.20;;;;;;4992536;28;20030;-72
2021/06/26 06:26:11;;;;;;;11.82;6.40;;;38.70;47.60;;;;;;4991596;28;20065;-73
2021/06/26 06:28:37;;;;;;;9.32;6.47;;;38.80;47.40;;;;;;4984408;28;20419;-71
2021/06/26 06:31:03;;;;;;;9.43;6.80;;;38.90;47.30;;;;;;4984375;28;20034;-72
2021/06/26 06:33:29;;;;;;;11.35;6.90;;;39.00;47.40;;;;;;4990227;28;20468;-69
2021/06/26 06:35:55;;;;;;;10.27;6.60;;;39.20;47.30;;;;;;4998244;28;20022;-71
2021/06/26 06:38:21;;;;;;;11.82;6.90;;;39.20;46.50;;;;;;5008282;28;20544;-71
2021/06/26 06:40:46;;;;;;;9.45;6.03;;;39.20;46.30;;;;;;5006443;28;20062;-71
2021/06/26 06:43:12;;;;;;;11.52;5.93;;;39.10;47.30;;;;;;4978776;28;20026;-73
2021/06/26 06:45:38;;;;;;;7.78;6.50;;;39.10;46.70;;;;;;4993880;28;20034;-73
2021/06/26 06:48:04;;;;;;;11.25;6.40;;;39.20;46.80;;;;;;4992097;28;20061;-72
2021/06/26 06:50:30;;;;;;;8.48;6.32;;;39.20;46.60;;;;;;4980833;28;20037;-69
2021/06/26 06:53:02;;;;;;;12.88;6.50;;;39.10;46.40;;;;;;4981001;28;20030;-71
2021/06/26 06:55:28;;;;;;;12.73;6.55;;;39.10;47.20;;;;;;4977475;28;20030;-73
2021/06/26 06:57:54;;;;;;;8.48;6.57;;;39.10;46.80;;;;;;4977329;28;20409;-70
2021/06/26 07:00:20;;;;;;;8.60;6.25;;;39.10;47.30;;;;;;4972067;28;20069;-72
2021/06/26 07:02:45;;;;;;;9.00;6.22;;;39.20;47.90;;;;;;4981762;28;20503;-74
2021/06/26 07:05:12;;;;;;;9.70;6.20;;;39.50;47.40;;;;;;4997938;28;20034;-71
2021/06/26 07:07:38;;;;;;;11.68;6.80;;;39.60;46.80;;;;;;4987516;28;20035;-70
2021/06/26 07:10:05;;;;;;;14.18;6.78;;;39.80;46.90;;;;;;4977579;28;20035;-68
2021/06/26 07:12:31;;;;;;;14.77;6.30;;;39.80;46.40;;;;;;4978797;28;20034;-67
2021/06/26 07:14:57;;;;;;;8.90;5.90;;;39.80;46.30;;;;;;4976853;28;20061;-68
2021/06/26 07:17:22;;;;;;;9.98;6.40;;;40.00;46.10;;;;;;4983857;28;20082;-69
2021/06/26 07:19:48;;;;;;;9.93;5.80;;;40.10;45.80;;;;;;4983785;28;20085;-67
2021/06/26 07:22:14;;;;;;;8.68;6.13;;;40.30;45.80;;;;;;4982401;28;20456;-67
2021/06/26 07:24:39;;;;;;;9.52;6.88;;;40.40;46.40;;;;;;4976331;28;20030;-68
2021/06/26 07:27:05;;;;;;;12.10;6.00;;;40.40;46.10;;;;;;4984807;28;20030;-65
2021/06/26 07:29:31;;;;;;;7.90;6.03;;;40.60;45.90;;;;;;4987568;28;20029;-66
2021/06/26 07:31:57;;;;;;;9.48;6.25;;;40.60;45.90;;;;;;4995202;28;20073;-67
2021/06/26 07:34:22;;;;;;;13.43;7.40;;;40.80;46.00;;;;;;4990839;28;20030;-66
2021/06/26 07:36:48;;;;;;;12.13;5.85;;;40.90;45.00;;;;;;4995778;28;20120;-67
2021/06/26 07:39:14;;;;;;;14.73;6.40;;;40.80;44.50;;;;;;4996617;28;20032;-68
2021/06/26 07:41:39;;;;;;;13.48;6.20;;;40.70;44.60;;;;;;4992037;28;20072;-67
2021/06/26 07:44:05;;;;;;;10.40;6.68;;;40.70;44.90;;;;;;4981697;28;20037;-67
2021/06/26 07:46:31;;;;;;;15.95;6.60;;;40.70;44.80;;;;;;4977770;28;20027;-67
2021/06/26 07:48:57;;;;;;;11.25;6.25;;;40.90;45.10;;;;;;4978402;28;20026;-69
2021/06/26 07:51:23;;;;;;;10.88;6.43;;;41.10;45.10;;;;;;5003351;28;20038;-64
2021/06/26 07:53:49;;;;;;;11.63;6.78;;;41.30;45.30;;;;;;4994040;28;20029;-66
2021/06/26 07:56:14;;;;;;;11.23;6.38;;;41.30;44.60;;;;;;4980009;28;20038;-68
2021/06/26 07:58:40;;;;;;;9.55;5.78;;;41.20;44.20;;;;;;4975181;28;20030;-67
2021/06/26 08:01:06;;;;;;;8.18;5.90;;;41.10;44.20;;;;;;4983295;28;20366;-67
2021/06/26 08:03:31;;;;;;;11.30;6.03;;;41.00;44.90;;;;;;4980869;28;20061;-64
2021/06/26 08:05:57;;;;;;;11.52;6.00;;;41.00;44.10;;;;;;4994567;28;20177;-71
2021/06/26 08:08:23;;;;;;;9.57;5.75;;;41.00;44.70;;;;;;4974480;28;20030;-71
2021/06/26 08:10:49;;;;;;;11.50;5.63;;;41.30;45.00;;;;;;4983551;28;20121;-71
2021/06/26 08:13:15;;;;;;;10.55;5.68;;;41.50;44.20;;;;;;4991856;28;20069;-70
2021/06/26 08:15:43;;;;;;;10.45;5.03;;;41.50;43.80;;;;;;4980405;28;20026;-69
2021/06/26 08:18:10;;;;;;;11.75;5.40;;;41.50;43.90;;;;;;4982360;28;20385;-69
2021/06/26 08:20:37;;;;;;;9.60;4.95;;;41.50;44.10;;;;;;4974156;28;20026;-69
2021/06/26 08:23:03;;;;;;;13.80;5.30;;;41.60;44.60;;;;;;4978993;28;20412;-70
2021/06/26 08:25:29;;;;;;;12.90;5.50;;;41.80;44.30;;;;;;4981056;28;20052;-72
2021/06/26 08:27:55;;;;;;;9.90;5.07;;;41.90;44.10;;;;;;4982746;28;20031;-71
2021/06/26 08:30:24;;;;;;;12.90;5.00;;;41.90;43.40;;;;;;4984103;28;20466;-70
2021/06/26 08:32:51;;;;;;;11.48;5.07;;;42.10;43.60;;;;;;4966581;28;20476;-73
2021/06/26 08:35:17;;;;;;;9.43;5.53;;;42.20;44.30;;;;;;5003259;28;20113;-75
2021/06/26 08:37:44;;;;;;;12.55;5.35;;;42.30;44.00;;;;;;4986989;28;20037;-75
2021/06/26 08:40:12;;;;;;;9.57;5.03;;;42.40;43.80;;;;;;5012533;28;20033;-72
2021/06/26 08:42:37;;;;;;;8.55;5.28;;;42.50;43.40;;;;;;4995783;28;20050;-71
2021/06/26 08:45:09;;;;;;;11.43;5.47;;;42.60;43.60;;;;;;4979706;28;20041;-70
2021/06/26 08:47:36;;;;;;;14.10;5.35;;;42.60;43.30;;;;;;4994356;28;20036;-69
2021/06/26 08:50:03;;;;;;;11.00;4.60;;;42.60;43.30;;;;;;4995273;28;20022;-72
2021/06/26 08:52:28;;;;;;;11.10;5.57;;;42.60;43.60;;;;;;5013206;28;20022;-69
2021/06/26 08:54:55;;;;;;;12.07;6.20;;;42.50;43.70;;;;;;5009838;28;20064;-71
2021/06/26 08:57:32;;;;;;;16.33;7.32;;;42.50;43.10;;;;;;4992369;28;20030;-69
2021/06/26 08:59:58;;;;;;;18.55;6.55;;;42.50;43.50;;;;;;5003759;28;20045;-67
2021/06/26 09:02:26;;;;;;;13.88;7.00;;;42.60;43.60;;;;;;4993723;28;20030;-71
2021/06/26 09:04:53;;;;;;;13.73;5.97;;;42.50;42.70;;;;;;4996024;28;20030;-73
2021/06/26 09:07:30;;;;;;;10.00;5.43;;;42.40;42.80;;;;;;4995512;28;20109;-68
2021/06/26 09:09:57;;;;;;;9.38;5.57;;;42.20;43.90;;;;;;4992021;28;20484;-68
2021/06/26 09:12:26;;;;;;;15.60;5.30;;;42.20;43.90;;;;;;5000348;28;20030;-68
2021/06/26 09:14:52;;;;;;;8.75;4.85;;;42.40;43.40;;;;;;4988901;28;20531;-69
2021/06/26 09:17:30;;;;;;;13.93;4.70;;;42.40;43.80;;;;;;4966180;28;20061;-69
2021/06/26 09:19:58;;;;;;;12.52;5.28;;;42.40;43.00;;;;;;4996357;28;20065;-66
2021/06/26 09:22:45;;;;;;;10.20;5.28;;;42.30;43.30;;;;;;5013054;28;20027;-68
2021/06/26 09:25:30;;;;;;;9.40;4.70;;;42.40;43.50;;;;;;4989156;28;20027;-67
2021/06/26 09:28:01;;;;;;;13.35;5.35;;;42.60;43.10;;;;;;4982594;28;20157;-67
2021/06/26 09:30:42;;;;;;;9.60;4.32;;;42.70;43.20;;;;;;4994805;28;20038;-67
2021/06/26 09:33:11;;;;;;;9.60;4.20;;;42.60;42.60;;;;;;5016358;28;20034;-67
2021/06/26 09:35:37;;;;;;;9.05;3.95;;;42.60;42.60;;;;;;4984291;28;20534;-71
2021/06/26 09:38:05;;;;;;;7.72;4.50;;;42.50;42.10;;;;;;4992657;28;20022;-72
2021/06/26 09:40:31;;;;;;;9.05;4.68;;;42.50;42.40;;;;;;4991991;28;20502;-71
2021/06/26 09:42:57;;;;;;;12.80;5.20;;;42.50;42.60;;;;;;5012638;28;20081;-72
2021/06/26 09:45:23;;;;;;;11.25;5.03;;;42.50;42.30;;;;;;4975523;28;20033;-71
2021/06/26 09:47:49;;;;;;;10.40;4.60;;;42.50;42.50;;;;;;4995537;28;20041;-70
2021/06/26 09:50:23;;;;;;;5.68;4.57;;;42.40;42.70;;;;;;4985800;28;20547;-74
2021/06/26 09:52:58;;;;;;;10.43;4.78;;;42.50;42.70;;;;;;4997196;28;20089;-72
2021/06/26 09:55:35;;;;;;;13.25;4.60;;;42.50;42.40;;;;;;4993534;28;20030;-73
2021/06/26 09:58:13;;;;;;;8.40;4.75;;;42.40;42.40;;;;;;4973909;28;20034;-77
2021/06/26 10:00:43;;;;;;;9.98;5.80;;;42.30;43.10;;;;;;4989365;28;20076;-71
2021/06/26 10:03:16;;;;;;;8.95;5.00;;;42.40;43.50;;;;;;4989296;28;20027;-71
2021/06/26 10:05:44;;;;;;;12.32;4.70;;;42.40;43.60;;;;;;4975733;28;20026;-71
2021/06/26 10:08:10;;;;;;;11.15;4.97;;;42.50;44.30;;;;;;4975007;28;20034;-73
2021/06/26 10:10:36;;;;;;;11.85;5.22;;;42.40;43.60;;;;;;4978338;28;20035;-72
2021/06/26 10:13:02;;;;;;;8.90;5.32;;;42.40;43.50;;;;;;4974264;28;20050;-71
2021/06/26 10:15:31;;;;;;;7.85;5.03;;;42.50;43.50;;;;;;4986730;28;20523;-71
2021/06/26 10:17:57;;;;;;;11.75;5.20;;;42.60;43.80;;;;;;4978762;28;20037;-72
2021/06/26 10:20:24;;;;;;;12.10;8.68;;;42.70;43.70;;;;;;4976250;28;20093;-73
2021/06/26 10:23:01;;;;;;;10.43;5.55;;;42.80;43.30;;;;;;4962346;28;20046;-71
2021/06/26 10:25:58;;;;;;;14.13;5.50;;;42.50;43.20;;;;;;4990784;28;20038;-72
2021/06/26 10:28:23;;;;;;;11.77;6.38;;;42.20;44.30;;;;;;4991120;28;20042;-74
2021/06/26 10:31:03;;;;;;;12.73;5.82;;;42.20;44.00;;;;;;4996710;28;20040;-71
2021/06/26 10:33:32;;;;;;;13.35;7.63;;;42.40;44.40;;;;;;4985625;28;20037;-69
2021/06/26 10:35:59;;;;;;;12.07;6.80;;;42.40;43.80;;;;;;4999590;28;20027;-70
2021/06/26 10:38:27;;;;;;;9.30;5.63;;;42.20;43.90;;;;;;4988276;28;20473;-70
2021/06/26 10:40:54;;;;;;;14.13;5.93;;;42.10;43.80;;;;;;4993307;28;20468;-70
2021/06/26 10:43:26;;;;;;;11.25;5.70;;;42.00;43.80;;;;;;4980161;28;20031;-72
2021/06/26 10:46:05;;;;;;;14.75;10.88;;;42.10;45.00;;;;;;4978608;28;20030;-72
2021/06/26 10:48:31;;;;;;;10.15;6.15;;;42.10;44.00;;;;;;4992233;28;20030;-70
2021/06/26 10:50:57;;;;;;;10.15;5.72;;;42.30;44.10;;;;;;4974923;28;20480;-70
2021/06/26 10:53:25;;;;;;;9.55;5.82;;;42.40;43.80;;;;;;4987452;28;20029;-71
2021/06/26 10:56:07;;;;;;;12.10;6.43;;;42.20;42.90;;;;;;4978273;28;20051;-68
2021/06/26 10:58:35;;;;;;;9.25;5.93;;;41.30;43.40;;;;;;4977125;28;20030;-70
2021/06/26 11:01:17;;;;;;;12.18;5.75;;;40.60;44.60;;;;;;4992734;28;20026;-71
2021/06/26 11:03:44;;;;;;;11.95;5.97;;;40.10;45.30;;;;;;4982528;28;20391;-72
2021/06/26 11:06:13;;;;;;;12.95;6.70;;;39.60;46.00;;;;;;4978181;28;20058;-72
2021/06/26 11:08:39;;;;;;;10.77;5.57;;;39.10;46.40;;;;;;4991611;28;20105;-72
2021/06/26 11:11:05;;;;;;;11.90;8.18;;;38.80;46.70;;;;;;4991906;28;20122;-72
2021/06/26 11:13:31;;;;;;;13.30;7.05;;;38.50;47.90;;;;;;4971632;28;20485;-69
2021/06/26 11:16:06;;;;;;;8.05;5.57;;;38.30;48.70;;;;;;4975302;28;20062;-69
2021/06/26 11:18:33;;;;;;;12.95;6.10;;;37.90;48.70;;;;;;4972614;28;20057;-71
2021/06/26 11:20:59;;;;;;;14.85;6.63;;;37.70;49.90;;;;;;4982916;28;20458;-73
2021/06/26 11:23:26;;;;;;;9.38;6.35;;;37.50;50.60;;;;;;4991016;28;20030;-71
2021/06/26 11:25:52;;;;;;;12.90;5.70;;;37.40;51.50;;;;;;4997276;28;20033;-73
2021/06/26 11:28:20;;;;;;;12.40;5.53;;;37.30;51.60;;;;;;4974891;28;20019;-71
2021/06/26 11:31:01;;;;;;;22.20;16.05;;;37.10;50.70;;;;;;4978668;28;20042;-69
2021/06/26 11:33:32;;;;;;;12.07;5.78;;;36.90;50.80;;;;;;4979702;28;20030;-70
2021/06/26 11:35:58;;;;;;;10.32;5.93;;;36.80;51.80;;;;;;4993238;28;20088;-71
2021/06/26 11:38:24;;;;;;;7.75;5.25;;;36.70;51.50;;;;;;4993338;28;20026;-74
2021/06/26 11:41:04;;;;;;;10.65;5.53;;;36.60;51.60;;;;;;4999593;28;20042;-74
2021/06/26 11:43:30;;;;;;;10.68;5.10;;;36.30;52.00;;;;;;4986477;28;20038;-71
2021/06/26 11:45:56;;;;;;;9.57;6.03;;;36.00;52.20;;;;;;4977264;28;20030;-71
2021/06/26 11:48:22;;;;;;;8.25;4.90;;;35.90;52.50;;;;;;4974418;28;20106;-71
2021/06/26 11:50:49;;;;;;;7.60;5.00;;;35.70;52.40;;;;;;4974740;28;20050;-72
2021/06/26 11:53:16;;;;;;;7.15;4.97;;;35.60;52.00;;;;;;4977864;28;20031;-71
2021/06/26 11:55:55;;;;;;;11.02;5.32;;;35.50;52.30;;;;;;4986949;28;20109;-73
2021/06/26 11:58:36;;;;;;;9.32;5.47;;;35.40;52.80;;;;;;4974400;28;20035;-71
2021/06/26 12:01:24;;;;;;;8.75;5.00;;;35.30;53.20;;;;;;4977229;28;20118;-69
2021/06/26 12:03:51;;;;;;;11.30;5.40;;;35.30;52.70;;;;;;4982501;28;20037;-73
2021/06/26 12:06:17;;;;;;;9.73;5.32;;;35.30;51.80;;;;;;4983113;28;20425;-70
2021/06/26 12:08:44;;;;;;;8.30;4.75;;;35.40;51.90;;;;;;4967995;28;20393;-72
2021/06/26 12:11:12;;;;;;;7.88;4.35;;;35.40;51.30;;;;;;4983696;28;20035;-71
2021/06/26 12:13:43;;;;;;;7.20;5.32;;;35.30;51.10;;;;;;4984472;28;20039;-69
2021/06/26 12:16:18;;;;;;;9.55;5.15;;;35.40;51.20;;;;;;4981753;28;20015;-69
2021/06/26 12:18:50;;;;;;;14.45;7.93;;;35.40;51.10;;;;;;4980033;28;20022;-73
2021/06/26 12:21:16;;;;;;;13.00;7.00;;;35.50;51.20;;;;;;4978231;28;20059;-67
2021/06/26 12:23:47;;;;;;;9.07;4.82;;;35.50;51.00;;;;;;4958505;28;20036;-70
2021/06/26 12:26:21;;;;;;;9.93;4.70;;;35.50;50.50;;;;;;4977297;28;20103;-71
2021/06/26 12:28:47;;;;;;;11.25;5.35;;;35.40;49.60;;;;;;4981772;28;20046;-68
2021/06/26 12:31:14;;;;;;;14.02;5.18;;;35.30;49.10;;;;;;4981607;28;20031;-72
2021/06/26 12:33:40;;;;;;;8.88;4.32;;;35.20;49.60;;;;;;4969158;28;20035;-70
2021/06/26 12:36:19;;;;;;;9.27;4.75;;;35.20;50.10;;;;;;4980837;28;20037;-71
2021/06/26 12:38:47;;;;;;;9.73;4.63;;;35.20;49.60;;;;;;5000623;28;20026;-69